Thunder radar more information blitzortung!


Radar de pluja more information rain snow radar


Visita la nostra xarxa de llocs de meteo:

Template documentation
and downloads

And another site



No particular awareness of the weather is required.    There are no Weather-warnings

Pagina Historial Weather Underground text

Diari Resum May 13, 2016 Unitats:  Mètric    Imperial   Tant
« Previous Dia
SegĂźent Dia »
Diari Setmana Mensual Anual Personalitzada
  Maxima: Minima: Media:
Temperatura: 24.5 °C 9.8 °C 17.4 °C
Punt de rosada: 11.2 °C 5.9 °C 8.8 °C
Humitat: 78 % 32 % 60 %
Wind Speed: 25.6 km/h 0.0 km/h 6.8 km/h
RĂ fegues de vent: 25.6 km/h - -
Vent:- - SE
Pression baro: 1010.7 hPa 1006.0 hPa -
Precipitacions: 0.0 mm    
Historical Graphs
 
 
Dades de taula per May 13, 2016
Temps Temperatura Punt de rosada Pression baro Vent Wind Speed RĂ fegues de vent Humitat Rainfall Rate (Hourly)
00:00 10.4 °C 6.2 °C 1007.0 hPa Calm   3.2 km/h 75 % 0.0 mm
00:01 13.0 °C 7.7 °C 1007.0 hPa SW 3.9 km/h 3.9 km/h 70 % 0.0 mm
00:06 12.9 °C 7.6 °C 1007.0 hPa WSW 2.3 km/h 2.3 km/h 70 % 0.0 mm
00:10 10.4 °C 6.3 °C 1007.0 hPa Calm   1.6 km/h 76 % 0.0 mm
00:11 12.9 °C 7.6 °C 1006.0 hPa West 3.7 km/h 3.7 km/h 70 % 0.0 mm
00:20 10.1 °C 6.1 °C 1007.0 hPa NNE 1.6 km/h 3.2 km/h 76 % 0.0 mm
00:30 10.0 °C 6.2 °C 1007.0 hPa WSW 1.6 km/h 3.2 km/h 77 % 0.0 mm
00:40 10.0 °C 5.9 °C 1007.0 hPa WSW 1.6 km/h 3.2 km/h 76 % 0.0 mm
00:50 10.1 °C 6.4 °C 1007.0 hPa Calm   3.2 km/h 78 % 0.0 mm
01:00 10.1 °C 6.4 °C 1007.0 hPa WNW 1.6 km/h 3.2 km/h 78 % 0.0 mm
01:10 10.1 °C 6.4 °C 1007.0 hPa Calm   1.6 km/h 78 % 0.0 mm
01:20 10.0 °C 6.3 °C 1007.0 hPa NNE 3.2 km/h 4.8 km/h 78 % 0.0 mm
01:30 10.1 °C 6.4 °C 1007.0 hPa Calm   1.6 km/h 78 % 0.0 mm
01:40 9.8 °C 5.9 °C 1007.0 hPa West 1.6 km/h 3.2 km/h 77 % 0.0 mm
01:50 10.0 °C 6.3 °C 1007.0 hPa West 1.6 km/h 3.2 km/h 78 % 0.0 mm
02:00 10.2 °C 6.6 °C 1007.0 hPa Calm   3.2 km/h 78 % 0.0 mm
02:10 10.7 °C 7.0 °C 1007.0 hPa NW 1.6 km/h 3.2 km/h 78 % 0.0 mm
02:20 11.2 °C 7.5 °C 1007.0 hPa NE 1.6 km/h 4.8 km/h 78 % 0.0 mm
02:30 11.7 °C 7.8 °C 1008.0 hPa NE 1.6 km/h 3.2 km/h 77 % 0.0 mm
02:40 12.0 °C 7.9 °C 1008.0 hPa NNE 1.6 km/h 4.8 km/h 76 % 0.0 mm
02:50 12.4 °C 8.3 °C 1008.0 hPa NNE 1.6 km/h 4.8 km/h 76 % 0.0 mm
03:00 12.8 °C 8.5 °C 1008.0 hPa NE 1.6 km/h 3.2 km/h 75 % 0.0 mm
03:10 13.0 °C 8.4 °C 1008.0 hPa NE 4.8 km/h 4.8 km/h 74 % 0.0 mm
03:20 13.0 °C 8.3 °C 1008.0 hPa NE 3.2 km/h 8.0 km/h 73 % 0.0 mm
03:30 13.3 °C 8.6 °C 1008.0 hPa NNE 4.8 km/h 6.4 km/h 73 % 0.0 mm
03:40 13.8 °C 8.8 °C 1007.0 hPa NE 3.2 km/h 6.4 km/h 72 % 0.0 mm
03:50 13.7 °C 8.6 °C 1007.0 hPa ENE 8.0 km/h 8.0 km/h 71 % 0.0 mm
04:00 14.0 °C 8.8 °C 1007.0 hPa ENE 3.2 km/h 8.0 km/h 71 % 0.0 mm
04:10 14.4 °C 9.0 °C 1008.0 hPa NE 3.2 km/h 4.8 km/h 70 % 0.0 mm
04:20 14.6 °C 9.0 °C 1008.0 hPa NE 4.8 km/h 6.4 km/h 69 % 0.0 mm
04:30 14.6 °C 9.0 °C 1008.0 hPa NE 4.8 km/h 9.7 km/h 69 % 0.0 mm
04:40 15.1 °C 9.4 °C 1008.0 hPa NNE 4.8 km/h 8.0 km/h 69 % 0.0 mm
04:50 15.3 °C 9.4 °C 1008.0 hPa NNE 1.6 km/h 6.4 km/h 68 % 0.0 mm
05:10 15.6 °C 9.3 °C 1007.0 hPa NE 4.8 km/h 8.0 km/h 66 % 0.0 mm
05:20 16.1 °C 9.5 °C 1007.0 hPa ENE 4.8 km/h 6.4 km/h 65 % 0.0 mm
05:30 16.4 °C 9.8 °C 1008.0 hPa ENE 3.2 km/h 6.4 km/h 65 % 0.0 mm
05:40 16.8 °C 10.2 °C 1007.0 hPa ENE 3.2 km/h 4.8 km/h 65 % 0.0 mm
05:50 17.5 °C 10.1 °C 1007.0 hPa ENE 4.8 km/h 4.8 km/h 62 % 0.0 mm
06:00 17.7 °C 10.3 °C 1008.0 hPa ENE 1.6 km/h 6.4 km/h 62 % 0.0 mm
11:09 18.2 °C 10.6 °C 1008.0 hPa NNE 6.4 km/h 6.4 km/h 61 % 0.0 mm
11:14 18.1 °C 10.2 °C 1008.0 hPa East 9.3 km/h 9.3 km/h 60 % 0.0 mm
11:29 19.4 °C 11.2 °C 1008.0 hPa SW 5.8 km/h 5.8 km/h 59 % 0.0 mm
11:34 19.4 °C 10.4 °C 1008.0 hPa SW 5.6 km/h 5.6 km/h 56 % 0.0 mm
11:39 19.5 °C 10.2 °C 1007.0 hPa NE 16.7 km/h 16.7 km/h 55 % 0.0 mm
11:44 20.0 °C 10.4 °C 1007.0 hPa NE 5.6 km/h 5.6 km/h 54 % 0.0 mm
11:49 20.5 °C 10.6 °C 1007.0 hPa NNE 5.0 km/h 6.4 km/h 53 % 0.0 mm
11:54 20.3 °C 10.7 °C 1008.0 hPa WSW 5.8 km/h 5.8 km/h 54 % 0.0 mm
11:59 20.4 °C 10.2 °C 1008.0 hPa SSE 11.1 km/h 11.1 km/h 52 % 0.0 mm
12:04 20.9 °C 10.7 °C 1008.0 hPa WNW 7.4 km/h 7.4 km/h 52 % 0.0 mm
12:09 20.7 °C 10.2 °C 1008.0 hPa WSW 7.4 km/h 7.4 km/h 51 % 0.0 mm
12:14 20.7 °C 10.2 °C 1008.0 hPa WNW 7.4 km/h 7.4 km/h 51 % 0.0 mm
12:19 20.9 °C 10.1 °C 1008.0 hPa West 7.4 km/h 7.4 km/h 50 % 0.0 mm
12:24 21.1 °C 9.9 °C 1008.0 hPa WNW 9.3 km/h 9.3 km/h 49 % 0.0 mm
12:29 21.3 °C 10.2 °C 1008.0 hPa WSW 5.6 km/h 5.6 km/h 49 % 0.0 mm
12:34 21.3 °C 9.8 °C 1008.0 hPa WNW 5.6 km/h 5.6 km/h 48 % 0.0 mm
12:39 21.4 °C 9.9 °C 1007.0 hPa SSW 3.9 km/h 3.9 km/h 48 % 0.0 mm
12:49 21.7 °C 9.9 °C 1007.0 hPa West 10.3 km/h 10.3 km/h 47 % 0.0 mm
12:54 21.9 °C 10.1 °C 1008.0 hPa WSW 13.0 km/h 13.0 km/h 47 % 0.0 mm
12:59 21.5 °C 9.4 °C 1008.0 hPa WSW 3.7 km/h 3.7 km/h 46 % 0.0 mm
13:09 22.1 °C 9.6 °C 1008.0 hPa SW 9.7 km/h 9.7 km/h 45 % 0.0 mm
13:14 22.1 °C 9.3 °C 1008.0 hPa SW 9.3 km/h 9.3 km/h 44 % 0.0 mm
13:19 22.1 °C 9.3 °C 1008.0 hPa WSW 5.6 km/h 5.6 km/h 44 % 0.0 mm
13:24 22.2 °C 9.0 °C 1007.0 hPa WSW 13.0 km/h 13.0 km/h 43 % 0.0 mm
13:29 22.3 °C 8.8 °C 1007.0 hPa SW 13.0 km/h 13.0 km/h 42 % 0.0 mm
13:34 22.7 °C 9.5 °C 1007.0 hPa SW 9.3 km/h 9.3 km/h 43 % 0.0 mm
13:39 22.7 °C 9.1 °C 1007.0 hPa WSW 14.8 km/h 14.8 km/h 42 % 0.0 mm
13:44 22.6 °C 8.7 °C 1007.0 hPa WSW 15.8 km/h 15.8 km/h 41 % 0.0 mm
13:49 22.6 °C 8.3 °C 1007.0 hPa WSW 9.3 km/h 9.3 km/h 40 % 0.0 mm
13:54 23.0 °C 7.9 °C 1007.0 hPa WSW 14.0 km/h 14.0 km/h 38 % 0.0 mm
13:59 22.9 °C 8.6 °C 1007.0 hPa SW 11.1 km/h 11.1 km/h 40 % 0.0 mm
14:04 23.1 °C 8.0 °C 1007.0 hPa SW 16.7 km/h 16.7 km/h 38 % 0.0 mm
14:14 23.0 °C 7.5 °C 1007.0 hPa WSW 9.3 km/h 9.3 km/h 37 % 0.0 mm
14:19 23.4 °C 8.3 °C 1007.0 hPa WSW 9.3 km/h 9.3 km/h 38 % 0.0 mm
14:24 23.1 °C 7.6 °C 1007.0 hPa WSW 16.7 km/h 16.7 km/h 37 % 0.0 mm
14:29 23.4 °C 7.5 °C 1007.0 hPa NW 16.7 km/h 16.7 km/h 36 % 0.0 mm
14:34 23.2 °C 7.3 °C 1007.0 hPa NW 9.3 km/h 9.3 km/h 36 % 0.0 mm
14:39 23.5 °C 7.9 °C 1007.0 hPa WSW 10.3 km/h 10.3 km/h 37 % 0.0 mm
14:44 23.7 °C 8.2 °C 1007.0 hPa WSW 10.3 km/h 10.3 km/h 37 % 0.0 mm
14:49 23.8 °C 7.8 °C 1007.0 hPa SW 9.3 km/h 9.3 km/h 36 % 0.0 mm
14:54 23.9 °C 8.3 °C 1007.0 hPa SSW 9.3 km/h 9.3 km/h 37 % 0.0 mm
14:59 23.8 °C 7.8 °C 1007.0 hPa WSW 11.1 km/h 11.1 km/h 36 % 0.0 mm
15:04 23.4 °C 7.1 °C 1007.0 hPa West 14.8 km/h 14.8 km/h 35 % 0.0 mm
15:09 23.8 °C 7.0 °C 1007.0 hPa WSW 12.2 km/h 12.2 km/h 34 % 0.0 mm
15:14 23.6 °C 7.2 °C 1007.0 hPa SSW 9.5 km/h 9.5 km/h 35 % 0.0 mm
15:19 23.9 °C 7.1 °C 1007.0 hPa WSW 13.0 km/h 13.0 km/h 34 % 0.0 mm
15:24 23.9 °C 6.7 °C 1007.0 hPa West 16.7 km/h 16.7 km/h 33 % 0.0 mm
15:29 24.0 °C 7.6 °C 1007.0 hPa West 5.6 km/h 5.6 km/h 35 % 0.0 mm
15:34 24.4 °C 7.9 °C 1007.0 hPa WSW 11.4 km/h 11.4 km/h 35 % 0.0 mm
15:39 24.1 °C 7.3 °C 1007.0 hPa WSW 9.3 km/h 9.3 km/h 34 % 0.0 mm
15:44 24.4 °C 7.5 °C 1007.0 hPa SSW 7.4 km/h 7.4 km/h 34 % 0.0 mm
15:49 24.3 °C 7.0 °C 1007.0 hPa West 13.0 km/h 13.0 km/h 33 % 0.0 mm
15:54 24.5 °C 7.6 °C 1007.0 hPa West 15.6 km/h 15.6 km/h 34 % 0.0 mm
15:59 24.1 °C 6.4 °C 1007.0 hPa SW 17.2 km/h 17.2 km/h 32 % 0.0 mm
16:04 23.9 °C 6.7 °C 1007.0 hPa SSW 9.3 km/h 9.3 km/h 33 % 0.0 mm
16:09 23.6 °C 5.9 °C 1007.0 hPa West 11.1 km/h 11.1 km/h 32 % 0.0 mm
16:14 23.7 °C 6.0 °C 1007.0 hPa WSW 13.0 km/h 13.0 km/h 32 % 0.0 mm
16:19 23.7 °C 6.9 °C 1007.0 hPa WSW 4.7 km/h 4.7 km/h 34 % 0.0 mm
16:24 23.6 °C 6.8 °C 1008.0 hPa WNW 5.6 km/h 5.6 km/h 34 % 0.0 mm
16:29 23.7 °C 6.9 °C 1008.0 hPa WNW 9.5 km/h 9.5 km/h 34 % 0.0 mm
16:34 23.6 °C 6.8 °C 1008.0 hPa WSW 9.7 km/h 9.7 km/h 34 % 0.0 mm
16:44 23.2 °C 6.4 °C 1007.0 hPa SW 3.7 km/h 3.7 km/h 34 % 0.0 mm
16:49 23.2 °C 6.9 °C 1007.0 hPa West 9.3 km/h 9.3 km/h 35 % 0.0 mm
16:54 23.0 °C 6.3 °C 1007.0 hPa NE 11.1 km/h 11.1 km/h 34 % 0.0 mm
16:59 22.8 °C 6.9 °C 1007.0 hPa West 5.6 km/h 5.6 km/h 36 % 0.0 mm
17:04 22.9 °C 7.4 °C 1007.0 hPa ENE 5.6 km/h 5.6 km/h 37 % 0.0 mm
17:09 22.5 °C 7.1 °C 1008.0 hPa ENE 11.1 km/h 11.1 km/h 37 % 0.0 mm
17:14 20.9 °C 8.2 °C 1008.0 hPa ENE 14.8 km/h 14.8 km/h 44 % 0.0 mm
17:19 19.9 °C 8.6 °C 1008.0 hPa ESE 13.0 km/h 13.0 km/h 48 % 0.0 mm
17:24 19.5 °C 8.5 °C 1008.0 hPa ESE 16.7 km/h 16.7 km/h 49 % 0.0 mm
17:29 19.1 °C 8.4 °C 1008.0 hPa NNE 13.7 km/h 13.7 km/h 50 % 0.0 mm
17:34 18.8 °C 8.4 °C 1008.0 hPa East 13.0 km/h 13.0 km/h 51 % 0.0 mm
17:39 18.7 °C 8.6 °C 1009.0 hPa ENE 14.8 km/h 14.8 km/h 52 % 0.0 mm
17:44 18.4 °C 8.4 °C 1009.0 hPa NNE 13.0 km/h 13.0 km/h 52 % 0.0 mm
17:49 18.1 °C 8.4 °C 1009.0 hPa NNE 22.2 km/h 22.2 km/h 53 % 0.0 mm
17:54 18.0 °C 8.3 °C 1008.0 hPa ENE 25.6 km/h 25.6 km/h 53 % 0.0 mm
17:59 17.7 °C 8.0 °C 1008.0 hPa ESE 14.8 km/h 14.8 km/h 53 % 0.0 mm
18:04 17.8 °C 8.4 °C 1008.0 hPa NNE 16.7 km/h 16.7 km/h 54 % 0.0 mm
18:14 17.5 °C 8.3 °C 1008.0 hPa ESE 22.2 km/h 22.2 km/h 55 % 0.0 mm
18:19 17.5 °C 8.6 °C 1008.0 hPa NE 20.4 km/h 20.4 km/h 56 % 0.0 mm
18:24 17.4 °C 8.5 °C 1008.0 hPa East 14.8 km/h 14.8 km/h 56 % 0.0 mm
18:29 17.3 °C 8.4 °C 1008.0 hPa East 13.0 km/h 13.0 km/h 56 % 0.0 mm
18:34 17.3 °C 8.9 °C 1008.0 hPa ENE 10.0 km/h 10.3 km/h 58 % 0.0 mm
18:39 17.2 °C 9.1 °C 1008.0 hPa NNE 18.5 km/h 18.5 km/h 59 % 0.0 mm
18:44 17.0 °C 9.2 °C 1008.0 hPa NE 16.7 km/h 16.7 km/h 60 % 0.0 mm
18:49 17.0 °C 9.2 °C 1008.0 hPa ESE 13.0 km/h 13.0 km/h 60 % 0.0 mm
18:54 17.0 °C 9.2 °C 1009.0 hPa ESE 13.0 km/h 13.0 km/h 60 % 0.0 mm
18:59 16.9 °C 9.6 °C 1009.0 hPa ENE 7.4 km/h 7.4 km/h 62 % 0.0 mm
19:09 16.6 °C 9.8 °C 1009.0 hPa East 9.3 km/h 9.3 km/h 64 % 0.0 mm
19:14 16.5 °C 9.7 °C 1009.0 hPa NNE 13.0 km/h 13.0 km/h 64 % 0.0 mm
19:19 16.5 °C 9.7 °C 1009.0 hPa NNE 10.0 km/h 10.0 km/h 64 % 0.0 mm
19:20 14.5 °C 10.3 °C 1010.0 hPa WSW 1.6 km/h 1.6 km/h 76 % 0.0 mm
19:24 16.5 °C 9.9 °C 1009.0 hPa NNE 12.2 km/h 12.2 km/h 65 % 0.0 mm
19:29 16.3 °C 9.9 °C 1009.0 hPa NE 9.3 km/h 9.3 km/h 66 % 0.0 mm
19:30 14.4 °C 10.4 °C 1009.0 hPa Calm     77 % 0.0 mm
19:34 16.3 °C 9.9 °C 1009.0 hPa ENE 9.3 km/h 9.3 km/h 66 % 0.0 mm
19:39 16.2 °C 9.8 °C 1010.0 hPa ENE 7.4 km/h 7.4 km/h 66 % 0.0 mm
19:44 16.2 °C 9.8 °C 1010.0 hPa ENE 7.4 km/h 7.4 km/h 66 % 0.0 mm
19:49 16.1 °C 9.7 °C 1010.0 hPa NNE 7.4 km/h 7.4 km/h 66 % 0.0 mm
19:50 14.3 °C 10.1 °C 1010.0 hPa Calm   1.6 km/h 76 % 0.0 mm
19:54 16.1 °C 9.9 °C 1010.0 hPa ENE 11.1 km/h 11.1 km/h 67 % 0.0 mm
20:00 14.1 °C 10.1 °C 1010.0 hPa SW 1.6 km/h 3.2 km/h 77 % 0.0 mm
20:04 16.0 °C 9.9 °C 1010.0 hPa NE 4.7 km/h 5.0 km/h 67 % 0.0 mm
20:09 16.0 °C 9.9 °C 1010.0 hPa East 5.6 km/h 5.6 km/h 67 % 0.0 mm
20:14 16.0 °C 9.9 °C 1010.0 hPa NNE 5.6 km/h 5.6 km/h 67 % 0.0 mm
20:19 16.0 °C 9.9 °C 1010.0 hPa East 3.7 km/h 3.9 km/h 67 % 0.0 mm
20:20 13.9 °C 9.7 °C 1010.0 hPa SW 3.2 km/h 3.2 km/h 76 % 0.0 mm
20:24 16.0 °C 10.1 °C 1010.0 hPa ENE 5.6 km/h 5.6 km/h 68 % 0.0 mm
20:30 15.9 °C 10.0 °C 1010.0 hPa ENE 3.2 km/h 6.4 km/h 68 % 0.0 mm
20:35 15.9 °C 10.0 °C 1010.0 hPa NNE 7.4 km/h 7.4 km/h 68 % 0.0 mm
20:40 15.8 °C 10.1 °C 1010.0 hPa NNE 5.6 km/h 5.6 km/h 69 % 0.0 mm
20:45 15.7 °C 10.0 °C 1010.0 hPa NNE 7.4 km/h 7.4 km/h 69 % 0.0 mm
20:50 15.6 °C 9.9 °C 1010.0 hPa NNE 5.6 km/h 5.6 km/h 69 % 0.0 mm
20:55 15.6 °C 9.9 °C 1010.0 hPa NNE 5.8 km/h 5.8 km/h 69 % 0.0 mm
21:00 15.6 °C 10.2 °C 1010.0 hPa NNE 5.6 km/h 5.6 km/h 70 % 0.0 mm
21:05 15.6 °C 10.2 °C 1010.0 hPa NNE 3.7 km/h 4.2 km/h 70 % 0.0 mm
21:10 15.5 °C 10.1 °C 1010.7 hPa ENE 7.4 km/h 7.4 km/h 70 % 0.0 mm
21:15 15.4 °C 10.2 °C 1010.7 hPa ENE 7.4 km/h 7.4 km/h 71 % 0.0 mm
21:20 15.4 °C 10.2 °C 1010.7 hPa NNE 5.6 km/h 5.6 km/h 71 % 0.0 mm
21:25 15.4 °C 10.2 °C 1010.0 hPa NE 2.3 km/h 2.3 km/h 71 % 0.0 mm
21:30 15.4 °C 10.2 °C 1010.0 hPa Calm     71 % 0.0 mm
21:35 15.3 °C 10.1 °C 1010.0 hPa Calm     71 % 0.0 mm
21:40 15.3 °C 10.3 °C 1010.0 hPa Calm     72 % 0.0 mm
21:45 15.3 °C 10.3 °C 1010.0 hPa ENE 3.2 km/h 3.2 km/h 72 % 0.0 mm
21:50 15.3 °C 10.3 °C 1010.0 hPa ENE 1.9 km/h 2.3 km/h 72 % 0.0 mm
22:00 15.3 °C 10.3 °C 1010.0 hPa NNE 3.9 km/h 3.9 km/h 72 % 0.0 mm
22:05 15.3 °C 10.3 °C 1010.0 hPa Calm     72 % 0.0 mm
22:10 15.3 °C 10.3 °C 1010.0 hPa Calm     72 % 0.0 mm
22:15 15.2 °C 10.2 °C 1010.0 hPa Calm     72 % 0.0 mm
22:20 13.2 °C 8.9 °C 1010.7 hPa Calm   1.6 km/h 75 % 0.0 mm
22:21 15.3 °C 10.5 °C 1010.0 hPa NE 3.7 km/h   73 % 0.0 mm
22:26 15.3 °C 10.5 °C 1010.0 hPa ENE 3.7 km/h 3.7 km/h 73 % 0.0 mm
22:30 13.1 °C 8.6 °C 1010.0 hPa NNE 1.6 km/h 3.2 km/h 74 % 0.0 mm
22:31 15.2 °C 10.4 °C 1010.0 hPa ENE 3.7 km/h 3.7 km/h 73 % 0.0 mm
22:36 15.2 °C 10.4 °C 1010.0 hPa ENE 1.9 km/h   73 % 0.0 mm
22:40 12.8 °C 8.5 °C 1010.7 hPa Calm   3.2 km/h 75 % 0.0 mm
22:41 15.2 °C 10.4 °C 1009.0 hPa NNE 1.9 km/h 1.9 km/h 73 % 0.0 mm
22:46 15.2 °C 10.4 °C 1009.0 hPa Calm     73 % 0.0 mm
22:50 12.8 °C 8.5 °C 1010.7 hPa WNW 1.6 km/h 1.6 km/h 75 % 0.0 mm
22:51 15.1 °C 10.3 °C 1009.0 hPa Calm     73 % 0.0 mm
22:56 15.1 °C 10.3 °C 1010.0 hPa ENE 3.7 km/h 3.7 km/h 73 % 0.0 mm
23:00 12.9 °C 8.6 °C 1010.7 hPa NNE 1.6 km/h 3.2 km/h 75 % 0.0 mm
23:01 15.1 °C 10.1 °C 1010.0 hPa SW 3.7 km/h 3.7 km/h 72 % 0.0 mm
23:06 14.8 °C 9.8 °C 1010.0 hPa SW 3.7 km/h 3.7 km/h 72 % 0.0 mm
23:10 12.8 °C 8.3 °C 1010.7 hPa NE 1.6 km/h 3.2 km/h 74 % 0.0 mm
23:11 14.7 °C 9.9 °C 1010.0 hPa WSW 2.3 km/h 2.6 km/h 73 % 0.0 mm
23:16 14.6 °C 9.8 °C 1010.0 hPa WSW 2.3 km/h 2.6 km/h 73 % 0.0 mm
23:20 12.6 °C 8.1 °C 1010.7 hPa NE 1.6 km/h 3.2 km/h 74 % 0.0 mm
23:21 14.6 °C 10.0 °C 1010.0 hPa Calm     74 % 0.0 mm
23:26 14.6 °C 10.0 °C 1010.0 hPa Calm     74 % 0.0 mm
23:31 14.6 °C 10.2 °C 1010.0 hPa Calm     75 % 0.0 mm
23:36 14.6 °C 10.2 °C 1010.0 hPa Calm   1.4 km/h 75 % 0.0 mm
23:40 12.3 °C 7.8 °C 1010.7 hPa Calm   1.6 km/h 74 % 0.0 mm
23:41 14.6 °C 10.4 °C 1010.0 hPa Calm     76 % 0.0 mm
23:46 14.6 °C 10.4 °C 1010.0 hPa NE 3.7 km/h 3.7 km/h 76 % 0.0 mm
23:50 12.0 °C 7.5 °C 1010.7 hPa Calm   3.2 km/h 74 % 0.0 mm
23:51 14.6 °C 10.4 °C 1010.0 hPa Calm     76 % 0.0 mm
23:56 14.6 °C 10.4 °C 1010.0 hPa Calm     76 % 0.0 mm
Meteo Sesrovires
Elogis d' Weather Underground - 3.5 mb

Guio original per  Jim McMurry - jmcmurry@mwt.net Adaptat per a la plantilla per  Wim van der Kuil - Leuven-Template.eu

Trobareu la nostra informacio del temps tambe a:

Weather Underground

AWEKAS